createdAt,value
2018-11-23T00:04:49.000Z,20.10
2018-11-23T00:13:59.800Z,20.27
2018-11-23T00:35:00.374Z,19.42
2018-11-23T00:37:49.374Z,22.00
2018-11-23T00:40:37.877Z,19.25
2018-11-23T00:46:12.206Z,20.75
2018-11-23T00:49:00.770Z,21.55
2018-11-23T00:54:35.757Z,19.98
2018-11-23T00:57:24.280Z,18.17
2018-11-23T01:00:13.908Z,18.27
2018-11-23T01:58:37.364Z,20.20
2018-11-23T02:10:31.910Z,19.45
2018-11-23T02:25:35.653Z,24.25
2018-11-23T02:28:24.417Z,20.23
2018-11-23T02:31:12.893Z,19.32
2018-11-23T02:36:47.549Z,20.15
2018-11-23T02:39:36.059Z,20.65
2018-11-23T02:42:24.631Z,20.97
2018-11-23T03:03:24.201Z,20.95
2018-11-23T03:06:12.752Z,24.23
2018-11-23T03:09:01.274Z,22.00
2018-11-23T03:14:35.674Z,20.97
2018-11-23T03:17:24.219Z,20.92
2018-11-23T03:38:24.001Z,20.80
2018-11-23T03:41:12.558Z,22.37
2018-11-23T04:26:42.237Z,21.68
2018-11-23T04:29:30.755Z,22.00
2018-11-23T06:13:27.186Z,24.30
2018-11-23T06:16:15.722Z,22.45
2018-11-23T06:34:27.589Z,24.05
2018-11-23T06:40:04.181Z,21.60
2018-11-23T06:42:51.173Z,21.90
2018-11-23T06:45:38.200Z,22.40
2018-11-23T06:48:25.107Z,22.65
2018-11-23T06:51:11.957Z,24.20
2018-11-23T06:53:58.818Z,22.22
2018-11-23T06:56:45.638Z,24.30
2018-11-23T06:59:32.327Z,21.60
2018-11-23T07:02:19.575Z,23.87
2018-11-23T07:05:06.120Z,21.85
2018-11-23T07:07:51.197Z,21.85
2018-11-23T10:36:45.623Z,22.87
2018-11-23T10:39:34.192Z,22.35
2018-11-23T10:42:22.960Z,24.02
2018-11-23T11:21:09.562Z,23.40
2018-11-23T11:23:39.134Z,24.47
2018-11-23T11:26:08.638Z,25.52
2018-11-23T11:28:39.379Z,23.40
2018-11-23T11:31:08.875Z,24.52
2018-11-23T11:33:38.397Z,25.65
2018-11-23T11:36:08.266Z,25.27
2018-11-23T11:38:37.918Z,24.55
2018-11-23T11:41:07.718Z,23.77
2018-11-23T11:43:37.629Z,23.10
2018-11-23T11:46:07.409Z,23.73
2018-11-23T11:48:36.932Z,22.80
2018-11-23T11:51:07.000Z,21.97
2018-11-23T11:53:36.510Z,23.70
2018-11-23T11:56:06.279Z,21.57
2018-11-23T11:58:35.810Z,24.27
2018-11-23T12:01:05.543Z,23.52
2018-11-23T12:03:35.052Z,24.98
2018-11-23T12:06:04.572Z,22.87
2018-11-23T12:08:34.082Z,21.60
2018-11-23T12:11:03.607Z,23.67
2018-11-23T12:13:33.124Z,22.00
2018-11-23T12:16:02.646Z,23.62
2018-11-23T12:18:32.150Z,21.45
2018-11-23T12:21:01.624Z,23.95
2018-11-23T12:23:31.423Z,21.50
2018-11-23T12:26:00.979Z,23.70
2018-11-23T12:28:30.431Z,23.55
2018-11-23T12:30:59.941Z,22.75
2018-11-23T12:33:29.477Z,25.15
2018-11-23T12:35:58.963Z,23.35
2018-11-23T12:38:28.508Z,23.40
2018-11-23T12:40:58.069Z,25.37
2018-11-23T12:43:27.605Z,22.40
2018-11-23T12:45:57.104Z,22.77
2018-11-23T12:48:26.628Z,23.85
2018-11-23T12:50:56.125Z,21.62
2018-11-23T12:53:25.632Z,23.45
2018-11-23T12:55:55.129Z,22.90
2018-11-23T12:58:24.682Z,24.47
2018-11-23T13:00:54.204Z,24.87
2018-11-23T13:03:23.699Z,25.32
2018-11-23T13:05:53.205Z,24.82
2018-11-23T13:08:22.849Z,24.23
2018-11-23T13:10:53.380Z,24.77
2018-11-23T13:13:23.178Z,23.25
2018-11-23T13:15:52.704Z,22.75
2018-11-23T13:18:23.162Z,23.40
2018-11-23T13:20:52.666Z,22.50
2018-11-23T13:23:22.301Z,22.10
2018-11-23T13:25:51.857Z,22.62
2018-11-23T13:28:21.399Z,24.37
2018-11-23T13:30:50.940Z,23.90
2018-11-23T13:33:20.432Z,22.10
2018-11-23T13:35:50.168Z,21.45
2018-11-23T13:38:19.768Z,24.27
2018-11-23T13:40:49.396Z,23.42
2018-11-23T13:43:19.101Z,21.05
2018-11-23T13:45:51.888Z,22.62
2018-11-23T13:48:20.840Z,24.18
2018-11-23T13:50:50.424Z,26.12
2018-11-23T13:53:20.006Z,24.30
2018-11-23T13:55:49.623Z,24.47
2018-11-23T13:58:19.253Z,23.77
2018-11-23T14:00:49.219Z,22.65
2018-11-23T14:03:18.811Z,24.30
2018-11-23T14:05:48.480Z,25.50
2018-11-23T14:08:18.602Z,23.42
2018-11-23T14:10:48.644Z,23.15
2018-11-23T14:13:18.568Z,23.85
2018-11-23T14:15:49.282Z,23.98
2018-11-23T14:18:21.402Z,21.85
2018-11-23T14:20:50.922Z,22.67
2018-11-23T14:23:20.569Z,24.55
2018-11-23T14:25:50.081Z,23.47
2018-11-23T14:28:19.595Z,23.15
2018-11-23T14:30:49.148Z,24.95
2018-11-23T14:33:18.835Z,25.75
2018-11-23T14:35:48.415Z,23.60
2018-11-23T14:38:17.906Z,24.47
2018-11-23T14:40:47.428Z,24.30
2018-11-23T14:43:16.953Z,21.73
2018-11-23T14:45:46.860Z,21.60
2018-11-23T14:48:16.511Z,23.27
2018-11-23T14:50:49.590Z,22.15
2018-11-23T14:53:19.120Z,23.10
2018-11-23T14:55:48.724Z,25.80
2018-11-23T14:58:18.521Z,23.98
2018-11-23T15:00:48.452Z,23.57
2018-11-23T15:03:18.056Z,25.88
2018-11-23T15:05:48.339Z,24.18
2018-11-23T15:08:17.865Z,24.47
2018-11-23T15:10:47.949Z,24.70
2018-11-23T15:13:17.446Z,23.80
2018-11-23T15:15:46.941Z,26.25
2018-11-23T15:18:16.446Z,25.70
2018-11-23T15:20:46.841Z,27.80
2018-11-23T15:23:20.542Z,26.35
2018-11-23T15:25:49.993Z,26.15
2018-11-23T15:28:19.545Z,26.57
2018-11-23T15:30:49.117Z,23.87
2018-11-23T15:33:19.345Z,23.38
2018-11-23T15:35:49.045Z,24.23
2018-11-23T15:38:20.085Z,24.77
2018-11-23T15:40:49.554Z,27.98
2018-11-23T15:43:19.961Z,24.18
2018-11-23T15:45:49.446Z,22.70
2018-11-23T15:48:18.955Z,25.00
2018-11-23T15:50:48.446Z,22.10
2018-11-23T15:53:18.203Z,23.60
2018-11-23T15:55:47.694Z,24.35
2018-11-23T15:58:18.058Z,23.18
2018-11-23T16:00:48.625Z,22.42
2018-11-23T16:03:18.283Z,23.45
2018-11-23T16:05:47.778Z,23.77
2018-11-23T16:08:18.834Z,25.15
2018-11-23T16:10:48.363Z,26.45
2018-11-23T16:13:17.900Z,24.75
2018-11-23T16:15:47.426Z,24.75
2018-11-23T16:18:18.319Z,27.90
2018-11-23T16:20:48.108Z,25.48
2018-11-23T16:23:18.973Z,25.02
2018-11-23T16:25:49.075Z,27.98
2018-11-23T16:28:18.657Z,28.65
2018-11-23T16:30:49.577Z,31.95
2018-11-23T16:33:22.999Z,30.33
2018-11-23T16:35:52.521Z,25.70
2018-11-23T16:38:23.224Z,29.05
2018-11-23T16:40:54.285Z,26.15
2018-11-23T16:43:23.872Z,29.27
2018-11-23T16:45:53.383Z,26.30
2018-11-23T16:48:23.307Z,26.12
2018-11-23T16:50:52.784Z,26.80
2018-11-23T16:53:22.331Z,26.50
2018-11-23T16:55:51.803Z,25.82
2018-11-23T16:58:21.294Z,26.07
2018-11-23T17:00:55.011Z,28.10
2018-11-23T17:03:23.680Z,28.92
2018-11-23T17:05:54.566Z,26.37
2018-11-23T17:08:24.158Z,27.35
2018-11-23T17:10:54.122Z,26.55
2018-11-23T17:13:23.616Z,24.77
2018-11-23T17:15:53.229Z,24.57
2018-11-23T17:18:25.377Z,23.77
2018-11-23T17:20:54.817Z,24.90
2018-11-23T17:23:24.330Z,23.92
2018-11-23T17:25:53.826Z,24.95
2018-11-23T17:28:23.356Z,25.20
2018-11-23T17:30:52.858Z,24.43
2018-11-23T17:33:22.352Z,24.95
2018-11-23T17:35:51.846Z,23.65
2018-11-23T17:38:21.371Z,23.52
2018-11-23T17:40:50.841Z,23.32
2018-11-23T17:43:20.351Z,23.80
2018-11-23T17:45:49.835Z,25.82
2018-11-23T17:48:19.315Z,28.35
2018-11-23T17:50:48.803Z,24.72
2018-11-23T17:53:18.252Z,28.20
2018-11-23T17:55:47.783Z,26.68
2018-11-23T17:58:17.293Z,24.65
2018-11-23T18:00:46.789Z,24.90
2018-11-23T18:03:16.266Z,25.62
2018-11-23T18:05:45.807Z,26.62
2018-11-23T18:08:15.396Z,28.45
2018-11-23T18:10:44.897Z,27.20
2018-11-23T18:13:14.456Z,27.40
2018-11-23T18:15:44.004Z,26.15
2018-11-23T18:18:13.535Z,24.25
2018-11-23T18:20:43.273Z,28.95
2018-11-23T18:23:12.748Z,26.35
2018-11-23T18:25:42.254Z,28.17
2018-11-23T18:28:11.751Z,26.75
2018-11-23T18:30:41.280Z,30.50
2018-11-23T18:33:11.015Z,26.57
2018-11-23T18:35:40.501Z,24.55
2018-11-23T18:38:10.035Z,24.98
2018-11-23T18:40:39.627Z,25.40
2018-11-23T18:43:09.187Z,24.27
2018-11-23T18:45:42.222Z,28.45
2018-11-23T18:48:11.683Z,26.65
2018-11-23T18:50:41.252Z,23.02
2018-11-23T18:53:10.811Z,25.10
2018-11-23T18:55:40.356Z,24.65
2018-11-23T18:58:09.925Z,23.05
2018-11-23T19:00:39.418Z,24.20
2018-11-23T19:03:08.941Z,23.90
2018-11-23T19:05:38.511Z,25.60
2018-11-23T19:08:07.975Z,27.27
2018-11-23T19:10:37.548Z,24.00
2018-11-23T19:13:07.436Z,27.15
2018-11-23T19:15:37.654Z,27.37
2018-11-23T19:18:07.307Z,26.60
2018-11-23T19:20:36.787Z,32.08
2018-11-23T19:23:06.324Z,30.40
2018-11-23T19:25:35.850Z,26.90
2018-11-23T19:28:05.522Z,27.93
2018-11-23T19:30:35.054Z,28.45
2018-11-23T19:33:04.556Z,26.42
2018-11-23T19:35:34.103Z,26.97
2018-11-23T19:38:03.580Z,25.10
2018-11-23T19:40:33.056Z,28.20
2018-11-23T19:43:02.568Z,28.62
2018-11-23T19:45:32.350Z,29.18
2018-11-23T19:48:01.827Z,29.40
2018-11-23T19:50:31.335Z,27.27
2018-11-23T19:53:00.787Z,28.27
2018-11-23T19:55:30.321Z,28.23
2018-11-23T19:57:59.807Z,27.10
2018-11-23T20:00:30.819Z,28.75
2018-11-23T20:02:58.985Z,27.48
2018-11-23T20:05:28.494Z,25.65
2018-11-23T20:07:58.430Z,26.33
2018-11-23T20:10:28.194Z,29.10
2018-11-23T20:12:58.676Z,29.18
2018-11-23T20:15:28.198Z,25.80
2018-11-23T20:17:57.866Z,28.05
2018-11-23T20:20:27.402Z,28.35
2018-11-23T20:22:57.103Z,30.77
2018-11-23T20:25:26.727Z,29.92
2018-11-23T20:27:56.578Z,29.92
2018-11-23T20:30:26.026Z,30.45
2018-11-23T20:32:55.536Z,30.55
2018-11-23T20:35:25.326Z,27.50
2018-11-23T20:37:54.821Z,28.98
2018-11-23T20:40:24.970Z,30.25
2018-11-23T20:42:54.599Z,27.77
2018-11-23T20:45:24.403Z,28.05
2018-11-23T20:47:53.958Z,28.92
2018-11-23T20:50:23.424Z,31.73
2018-11-23T20:52:52.917Z,28.75
2018-11-23T20:55:24.275Z,32.23
2018-11-23T20:57:54.103Z,27.52
2018-11-23T21:00:25.876Z,31.07
2018-11-23T21:02:55.592Z,28.65
2018-11-23T21:05:25.155Z,28.85
2018-11-23T21:07:54.631Z,29.42
2018-11-23T21:10:25.091Z,30.30
2018-11-23T21:12:55.160Z,30.95
2018-11-23T21:15:31.287Z,28.73
2018-11-23T21:18:09.747Z,29.65
2018-11-23T21:20:39.285Z,27.48
2018-11-23T21:23:08.780Z,28.57
2018-11-23T21:25:38.257Z,30.48
2018-11-23T21:28:07.755Z,29.92
2018-11-23T21:30:37.252Z,31.02
2018-11-23T21:33:06.835Z,27.77
2018-11-23T21:35:36.319Z,27.07
2018-11-23T21:38:05.993Z,28.45
2018-11-23T21:40:35.494Z,27.50
2018-11-23T21:43:05.001Z,24.87
2018-11-23T21:45:35.829Z,27.20
2018-11-23T21:48:05.519Z,26.73
2018-11-23T21:50:35.002Z,27.25
2018-11-23T21:53:04.526Z,28.17
2018-11-23T21:55:33.983Z,27.32
2018-11-23T21:58:03.519Z,27.00
2018-11-23T22:00:37.761Z,28.42
2018-11-23T22:03:05.414Z,26.27
2018-11-23T22:06:11.692Z,30.68
2018-11-23T22:08:40.522Z,32.10
2018-11-23T22:11:08.973Z,26.17
2018-11-23T22:13:37.465Z,28.52
2018-11-23T22:16:06.477Z,31.60
2018-11-23T22:18:34.988Z,28.87
2018-11-23T22:21:03.596Z,29.12
2018-11-23T22:23:31.978Z,30.00
2018-11-23T22:26:00.598Z,28.83
2018-11-23T22:28:29.415Z,28.07
2018-11-23T22:30:58.143Z,28.47
2018-11-23T22:33:26.567Z,27.98
2018-11-23T22:35:55.261Z,27.95
2018-11-23T22:38:24.903Z,26.80
2018-11-23T22:40:54.640Z,28.12
2018-11-23T22:43:23.884Z,29.50
2018-11-23T22:45:56.707Z,26.35
2018-11-23T22:48:32.032Z,28.57
2018-11-23T22:51:01.570Z,33.30
2018-11-23T22:53:30.071Z,31.07
2018-11-23T22:55:58.927Z,31.93
2018-11-23T22:58:27.783Z,28.85
2018-11-23T23:01:02.018Z,30.25
2018-11-23T23:03:30.837Z,28.85
2018-11-23T23:06:00.128Z,27.42
2018-11-23T23:08:28.041Z,27.10
2018-11-23T23:10:57.043Z,27.98
2018-11-23T23:13:25.671Z,29.10
2018-11-23T23:15:54.230Z,26.25
2018-11-23T23:18:23.743Z,26.80
2018-11-23T23:20:52.224Z,24.92
2018-11-23T23:23:20.783Z,28.67
2018-11-23T23:25:49.499Z,28.67
2018-11-23T23:28:17.871Z,28.98
2018-11-23T23:30:46.263Z,27.50
2018-11-23T23:33:14.648Z,26.40
2018-11-23T23:35:43.088Z,29.50
2018-11-23T23:38:11.457Z,25.32
2018-11-23T23:40:40.209Z,27.35
2018-11-23T23:43:08.865Z,30.40
2018-11-23T23:45:37.978Z,28.67
2018-11-23T23:48:06.379Z,29.52
2018-11-23T23:50:34.847Z,28.67
2018-11-23T23:53:03.241Z,29.48
2018-11-23T23:55:31.713Z,29.60
2018-11-23T23:58:00.365Z,32.73
